Time;durP1;ratioP1;P1;durP2;ratioP2;P2;SDS_P1;SDS_P2;PMS_P1;PMS_P2;Temp;Humidity;BMP_temperature;BMP_pressure;BME280_temperature;BME280_humidity;BME280_pressure;Samples;Min_cycle;Max_cycle;Signal;HPM_P1;HPM_P2
2023/01/11 00:04:42;;;;;;;1.38;0.60;;;16.00;67.20;;;;;;10405378;28;20068;-59
2023/01/11 00:09:46;;;;;;;1.25;0.63;;;15.90;67.40;;;;;;10405196;28;20049;-63
2023/01/11 00:14:47;;;;;;;1.30;0.60;;;15.90;67.40;;;;;;10417221;28;20021;-60
2023/01/11 00:19:47;;;;;;;0.77;0.38;;;16.00;67.30;;;;;;10407643;28;20376;-60
2023/01/11 00:24:48;;;;;;;1.70;0.60;;;15.90;67.30;;;;;;10421406;28;20041;-60
2023/01/11 00:29:49;;;;;;;0.90;0.40;;;15.90;67.40;;;;;;10405546;28;20434;-60
2023/01/11 00:34:49;;;;;;;3.70;1.08;;;15.90;67.20;;;;;;10405219;28;20100;-60
2023/01/11 00:39:51;;;;;;;1.17;0.60;;;16.00;67.20;;;;;;10404315;28;20056;-59
2023/01/11 00:50:11;;;;;;;0.87;0.67;;;15.90;67.30;;;;;;10413086;28;20025;-59
2023/01/11 00:55:11;;;;;;;2.85;0.60;;;16.00;67.20;;;;;;10429682;28;20026;-61
2023/01/11 01:00:13;;;;;;;1.70;0.63;;;16.00;67.30;;;;;;10412119;28;20103;-60
2023/01/11 01:05:14;;;;;;;1.35;0.60;;;15.90;67.50;;;;;;10413441;28;20396;-59
2023/01/11 01:10:17;;;;;;;0.70;0.40;;;15.80;67.90;;;;;;10411817;28;20009;-61
2023/01/11 01:15:18;;;;;;;1.42;0.40;;;15.70;68.30;;;;;;10414735;28;20034;-61
2023/01/11 01:20:20;;;;;;;2.80;0.63;;;15.80;68.20;;;;;;10426522;28;20017;-60
2023/01/11 01:25:21;;;;;;;1.73;0.63;;;15.80;67.70;;;;;;10438672;28;20052;-60
2023/01/11 01:30:21;;;;;;;1.35;0.70;;;15.80;68.00;;;;;;10411026;28;20026;-61
2023/01/11 01:35:22;;;;;;;2.00;0.77;;;15.70;68.30;;;;;;10394677;28;20163;-61
2023/01/11 01:40:22;;;;;;;1.48;0.60;;;15.60;69.30;;;;;;10412026;28;20025;-61
2023/01/11 01:45:26;;;;;;;1.25;0.40;;;15.70;68.70;;;;;;10434687;28;20108;-61
2023/01/11 01:50:31;;;;;;;1.15;0.57;;;15.80;68.30;;;;;;10428618;28;20025;-60
2023/01/11 01:55:37;;;;;;;1.65;0.43;;;15.90;67.70;;;;;;10422687;28;20088;-61
2023/01/11 02:00:41;;;;;;;1.15;0.65;;;15.90;67.90;;;;;;10437895;28;20017;-60
2023/01/11 02:05:42;;;;;;;1.02;0.35;;;16.00;67.60;;;;;;10449681;28;20078;-60
2023/01/11 02:10:42;;;;;;;0.80;0.57;;;16.00;67.50;;;;;;10452279;28;20613;-61
2023/01/11 02:15:43;;;;;;;0.80;0.47;;;15.90;67.70;;;;;;10450463;28;20021;-60
2023/01/11 02:21:20;;;;;;;1.92;0.60;;;15.80;68.10;;;;;;10451483;28;20020;-60
2023/01/11 02:26:54;;;;;;;0.47;0.30;;;15.80;68.40;;;;;;10441849;28;20053;-60
2023/01/11 02:32:31;;;;;;;1.10;0.40;;;15.90;68.00;;;;;;10410094;28;20049;-61
2023/01/11 02:37:52;;;;;;;1.40;0.82;;;15.90;68.00;;;;;;10421722;28;20084;-61
2023/01/11 02:49:13;;;;;;;1.15;0.50;;;15.70;68.70;;;;;;10413279;28;20404;-59
2023/01/11 02:54:17;;;;;;;0.98;0.88;;;15.90;68.20;;;;;;10424459;28;20056;-60
2023/01/11 02:59:22;;;;;;;1.10;0.47;;;15.90;68.20;;;;;;10418482;28;20100;-60
2023/01/11 03:04:28;;;;;;;1.15;0.50;;;15.70;68.70;;;;;;10407311;28;20064;-61
2023/01/11 03:10:12;;;;;;;0.60;0.40;;;15.70;69.10;;;;;;10414543;28;20614;-60
2023/01/11 03:15:33;;;;;;;0.50;0.38;;;15.80;68.50;;;;;;10408078;28;20013;-61
2023/01/11 03:20:45;;;;;;;1.02;0.50;;;15.90;68.40;;;;;;10412017;28;20013;-60
2023/01/11 03:26:10;;;;;;;1.02;0.30;;;15.70;68.90;;;;;;10432046;28;20029;-61
2023/01/11 03:31:19;;;;;;;1.05;0.40;;;15.80;68.80;;;;;;10407871;28;20017;-59
2023/01/11 03:36:55;;;;;;;1.13;0.57;;;15.90;68.20;;;;;;10407539;28;20037;-60
2023/01/11 03:41:59;;;;;;;2.35;0.40;;;16.00;68.10;;;;;;10405820;28;20072;-60
2023/01/11 03:47:06;;;;;;;0.82;0.30;;;15.90;68.50;;;;;;10419126;28;20381;-61
2023/01/11 03:52:11;;;;;;;0.85;0.40;;;15.80;68.80;;;;;;10405636;28;20105;-59
2023/01/11 03:57:23;;;;;;;0.55;0.30;;;15.70;69.10;;;;;;10405136;28;20469;-59
2023/01/11 04:02:32;;;;;;;0.82;0.40;;;15.70;69.40;;;;;;10435712;28;20036;-61
2023/01/11 04:07:32;;;;;;;0.73;0.20;;;15.70;69.40;;;;;;10462891;28;20533;-58
2023/01/11 04:12:33;;;;;;;0.40;0.30;;;15.60;69.60;;;;;;10413197;28;20018;-60
2023/01/11 04:17:34;;;;;;;1.17;0.55;;;15.60;69.60;;;;;;10419299;28;20049;-59
2023/01/11 04:22:35;;;;;;;0.85;0.40;;;15.70;69.50;;;;;;10405727;28;20179;-60
2023/01/11 04:27:35;;;;;;;0.60;0.30;;;15.70;69.40;;;;;;10409409;28;20021;-60
2023/01/11 04:32:36;;;;;;;0.85;0.50;;;15.70;69.50;;;;;;10405977;28;20017;-60
2023/01/11 04:37:37;;;;;;;0.40;0.30;;;15.60;69.60;;;;;;10404292;28;20108;-64
2023/01/11 04:42:37;;;;;;;0.40;0.20;;;15.60;69.70;;;;;;10404357;28;20029;-60
2023/01/11 04:47:38;;;;;;;0.32;0.32;;;15.60;69.80;;;;;;10445705;28;20029;-60
2023/01/11 04:52:40;;;;;;;1.08;0.47;;;15.50;69.80;;;;;;10445182;28;20096;-60
2023/01/11 04:57:43;;;;;;;0.55;0.30;;;15.60;69.90;;;;;;10428298;28;20101;-60
2023/01/11 05:02:44;;;;;;;1.27;0.30;;;15.60;69.70;;;;;;10423212;28;20083;-60
2023/01/11 05:07:47;;;;;;;0.85;0.43;;;15.60;69.50;;;;;;10413122;28;20088;-60
2023/01/11 05:12:48;;;;;;;1.67;0.40;;;15.70;69.60;;;;;;10416831;28;20065;-61
2023/01/11 05:17:48;;;;;;;0.63;0.35;;;15.70;69.40;;;;;;10404661;28;20109;-59
2023/01/11 05:22:49;;;;;;;0.73;0.30;;;15.70;69.50;;;;;;10404547;28;20041;-61
2023/01/11 05:27:50;;;;;;;0.35;0.30;;;15.70;69.70;;;;;;10438220;28;20055;-61
2023/01/11 05:32:50;;;;;;;1.95;0.40;;;15.60;69.80;;;;;;10445976;28;20107;-61
2023/01/11 05:37:51;;;;;;;0.65;0.38;;;15.60;69.80;;;;;;10405511;28;20081;-59
2023/01/11 05:42:52;;;;;;;1.90;0.40;;;15.60;70.00;;;;;;10416608;28;20021;-61
2023/01/11 05:47:52;;;;;;;1.38;0.40;;;15.60;69.80;;;;;;10432168;28;20839;-58
2023/01/11 05:52:53;;;;;;;3.05;0.70;;;15.60;69.90;;;;;;10437727;28;20075;-58
2023/01/11 05:57:54;;;;;;;3.88;0.50;;;15.80;70.80;;;;;;10412221;28;20109;-63
2023/01/11 06:02:54;;;;;;;7.32;0.90;;;15.80;70.30;;;;;;10410920;28;20100;-62
2023/01/11 06:07:55;;;;;;;27.70;2.88;;;15.80;70.70;;;;;;10413285;28;20104;-63
2023/01/11 06:13:25;;;;;;;10.63;1.30;;;15.90;70.20;;;;;;10439800;28;20057;-59
2023/01/11 06:18:16;;;;;;;12.40;1.77;;;15.90;71.50;;;;;;10421741;28;20041;-61
2023/01/11 06:23:17;;;;;;;10.18;2.00;;;16.00;71.50;;;;;;10436161;28;20395;-61
2023/01/11 06:28:18;;;;;;;16.67;2.67;;;16.20;71.70;;;;;;10424861;28;20557;-62
2023/01/11 06:33:19;;;;;;;15.65;2.58;;;16.20;72.20;;;;;;10429719;28;20062;-61
2023/01/11 06:38:22;;;;;;;9.18;1.58;;;16.20;72.40;;;;;;10433036;28;20026;-61
2023/01/11 06:43:24;;;;;;;6.72;1.20;;;16.20;72.60;;;;;;10440159;28;20517;-61
2023/01/11 06:48:26;;;;;;;16.30;3.33;;;16.20;72.10;;;;;;10410666;28;20029;-61
2023/01/11 06:53:27;;;;;;;9.50;1.67;;;16.10;72.10;;;;;;10406977;28;20465;-61
2023/01/11 06:58:27;;;;;;;9.20;2.38;;;16.10;72.00;;;;;;10432113;28;20401;-64
2023/01/11 07:03:28;;;;;;;7.20;1.60;;;16.00;72.50;;;;;;10416054;28;20096;-61
2023/01/11 07:08:29;;;;;;;7.78;1.23;;;16.00;72.60;;;;;;10434476;28;20091;-59
2023/01/11 07:13:30;;;;;;;10.93;2.05;;;16.00;72.60;;;;;;10434347;28;20025;-59
2023/01/11 07:18:32;;;;;;;5.68;2.10;;;16.00;72.30;;;;;;10420105;28;20535;-61
2023/01/11 07:23:32;;;;;;;10.95;2.30;;;15.90;71.70;;;;;;10413390;28;20131;-60
2023/01/11 07:28:33;;;;;;;10.57;2.00;;;15.70;71.80;;;;;;10414826;28;20048;-59
2023/01/11 07:33:34;;;;;;;9.30;1.80;;;15.70;72.00;;;;;;10423554;28;20152;-59
2023/01/11 07:38:34;;;;;;;8.60;1.75;;;15.60;71.90;;;;;;10424893;28;20021;-59
2023/01/11 07:43:35;;;;;;;8.93;2.42;;;15.60;72.00;;;;;;10422644;28;20033;-60
2023/01/11 07:48:36;;;;;;;12.77;2.70;;;15.50;71.80;;;;;;10415661;28;20116;-59
2023/01/11 07:53:36;;;;;;;6.90;1.58;;;15.60;71.80;;;;;;10410586;28;20096;-59
2023/01/11 07:58:37;;;;;;;9.82;1.80;;;15.60;72.00;;;;;;10402814;28;20037;-59
2023/01/11 08:03:38;;;;;;;10.48;2.13;;;15.50;72.10;;;;;;10400633;28;20104;-59
2023/01/11 08:08:39;;;;;;;12.23;2.75;;;15.60;72.00;;;;;;10403815;28;20105;-58
2023/01/11 08:19:00;;;;;;;8.07;1.97;;;15.60;72.00;;;;;;10426271;28;20033;-60
2023/01/11 08:24:01;;;;;;;6.78;1.95;;;15.60;71.70;;;;;;10417342;28;20099;-60
2023/01/11 08:29:01;;;;;;;4.78;1.95;;;15.50;71.60;;;;;;10427876;28;20521;-59
2023/01/11 08:34:02;;;;;;;6.72;1.63;;;15.60;71.50;;;;;;10430966;28;20109;-58
2023/01/11 08:39:03;;;;;;;6.13;2.28;;;15.50;71.90;;;;;;10433224;28;20115;-57
2023/01/11 08:44:04;;;;;;;7.32;1.83;;;15.60;71.30;;;;;;10423517;28;20030;-59
2023/01/11 08:49:10;;;;;;;8.27;1.65;;;15.60;71.10;;;;;;10433598;28;20082;-59
2023/01/11 08:54:13;;;;;;;5.82;1.77;;;15.70;71.50;;;;;;10450640;28;20013;-58
2023/01/11 08:59:13;;;;;;;7.72;1.98;;;15.70;71.20;;;;;;10432145;28;20017;-54
2023/01/11 09:04:14;;;;;;;6.82;1.77;;;15.70;71.30;;;;;;10426982;28;20037;-59
2023/01/11 09:09:15;;;;;;;7.35;1.70;;;15.80;71.70;;;;;;10430029;28;20036;-54
2023/01/11 09:14:16;;;;;;;8.13;3.15;;;15.60;71.10;;;;;;10427418;28;20032;-59
2023/01/11 09:19:17;;;;;;;8.52;1.70;;;15.60;71.40;;;;;;10441478;28;20025;-56
2023/01/11 09:24:17;;;;;;;8.80;2.95;;;15.50;71.60;;;;;;10410900;28;20125;-57
2023/01/11 09:29:18;;;;;;;6.97;2.22;;;15.50;71.60;;;;;;10447285;28;20369;-57
2023/01/11 09:34:19;;;;;;;8.43;1.52;;;15.50;71.60;;;;;;10441078;28;20018;-57
2023/01/11 09:39:24;;;;;;;8.05;2.58;;;15.50;71.60;;;;;;10410425;28;20022;-57
2023/01/11 09:44:28;;;;;;;6.32;1.73;;;15.50;71.60;;;;;;10421780;28;20029;-57
2023/01/11 09:49:37;;;;;;;8.05;2.28;;;15.50;71.60;;;;;;10408106;28;20114;-56
2023/01/11 09:54:37;;;;;;;4.33;1.57;;;15.50;71.50;;;;;;10423425;28;20025;-56
2023/01/11 09:59:51;;;;;;;4.97;1.80;;;15.50;71.60;;;;;;10409882;28;20021;-57
2023/01/11 10:05:22;;;;;;;4.28;1.45;;;15.50;71.70;;;;;;10432246;28;20350;-56
2023/01/11 10:10:46;;;;;;;5.10;1.38;;;15.50;71.80;;;;;;10412102;28;20014;-55
2023/01/11 10:16:25;;;;;;;6.88;2.40;;;15.50;71.80;;;;;;10428873;28;20025;-57
2023/01/11 10:21:53;;;;;;;5.55;1.33;;;15.60;71.70;;;;;;10422026;28;20041;-57
2023/01/11 10:26:57;;;;;;;5.72;1.63;;;15.60;71.50;;;;;;10436372;28;20530;-57
2023/01/11 10:42:51;;;;;;;5.47;1.40;;;15.70;71.20;;;;;;10422391;28;20668;-57
2023/01/11 10:48:25;;;;;;;5.88;1.98;;;15.70;71.20;;;;;;10439195;28;20432;-60
2023/01/11 10:53:37;;;;;;;4.47;1.73;;;15.70;71.20;;;;;;10422880;28;20033;-57
2023/01/11 10:59:15;;;;;;;4.32;1.50;;;15.70;71.80;;;;;;10433327;28;20391;-57
2023/01/11 11:05:04;;;;;;;8.63;2.75;;;15.70;71.20;;;;;;10420621;28;20087;-56
2023/01/11 11:10:34;;;;;;;5.68;1.55;;;15.70;71.30;;;;;;10415666;28;20052;-64
2023/01/11 11:15:49;;;;;;;3.97;1.70;;;15.70;71.40;;;;;;10416742;28;20053;-55
2023/01/11 11:20:50;;;;;;;4.35;1.40;;;15.80;71.30;;;;;;10433361;28;20497;-57
2023/01/11 11:25:57;;;;;;;4.10;1.67;;;15.80;71.30;;;;;;10411582;28;20180;-56
2023/01/11 11:31:02;;;;;;;5.90;2.22;;;15.90;71.30;;;;;;10406484;28;20029;-57
2023/01/11 14:42:25;;;;;;;17.77;2.30;;;18.00;70.40;;;;;;10398501;28;20093;-60
2023/01/11 14:47:33;;;;;;;18.95;3.67;;;17.90;71.10;;;;;;10442293;28;20112;-61
2023/01/11 14:52:37;;;;;;;13.63;2.90;;;17.70;71.40;;;;;;10434093;28;20141;-60
2023/01/11 14:58:00;;;;;;;14.60;2.65;;;17.60;72.10;;;;;;10410082;28;20025;-59
2023/01/11 15:03:03;;;;;;;12.27;3.15;;;17.60;71.30;;;;;;10419192;28;20029;-61
2023/01/11 15:08:42;;;;;;;11.65;2.85;;;17.50;72.40;;;;;;10439207;28;20108;-59
2023/01/11 15:13:48;;;;;;;15.70;2.80;;;17.50;71.90;;;;;;10436766;28;20467;-64
2023/01/11 15:18:49;;;;;;;20.55;4.38;;;17.30;72.70;;;;;;10448771;28;20164;-65
2023/01/11 15:23:54;;;;;;;16.38;4.32;;;17.50;72.90;;;;;;10446398;28;20090;-63
2023/01/11 15:29:01;;;;;;;12.40;3.70;;;17.40;71.60;;;;;;10429250;28;20033;-63
2023/01/11 15:34:20;;;;;;;26.73;4.28;;;17.20;71.80;;;;;;10425490;28;20025;-65
2023/01/11 15:39:53;;;;;;;19.10;3.80;;;17.10;72.00;;;;;;10425269;28;20461;-65
2023/01/11 15:51:44;;;;;;;13.95;3.00;;;17.40;70.70;;;;;;10406928;28;20037;-64
2023/01/11 15:57:14;;;;;;;15.25;3.72;;;17.70;69.80;;;;;;10418785;28;20045;-64
2023/01/11 16:02:47;;;;;;;11.98;2.80;;;17.50;69.90;;;;;;10418558;28;20034;-63
2023/01/11 16:08:23;;;;;;;14.32;3.53;;;17.60;70.40;;;;;;10413255;28;20047;-66
2023/01/11 16:14:06;;;;;;;12.55;3.92;;;17.60;69.60;;;;;;10405265;28;20021;-62
2023/01/11 16:19:23;;;;;;;13.48;2.67;;;17.50;68.20;;;;;;10425368;28;20029;-61
2023/01/11 16:24:36;;;;;;;13.48;2.83;;;17.40;68.30;;;;;;10407628;28;20037;-64
2023/01/11 16:29:37;;;;;;;8.23;2.97;;;17.40;67.60;;;;;;10415918;28;20022;-65
2023/01/11 16:34:44;;;;;;;11.02;4.32;;;17.60;66.90;;;;;;10402377;28;20022;-64
2023/01/11 16:39:47;;;;;;;8.82;2.05;;;17.80;66.30;;;;;;10400169;28;20520;-64
2023/01/11 16:44:57;;;;;;;14.73;2.63;;;17.90;66.00;;;;;;10412211;28;20370;-64
2023/01/11 16:50:13;;;;;;;10.07;1.65;;;17.90;65.70;;;;;;10407388;28;20136;-62
2023/01/11 16:55:36;;;;;;;11.98;3.55;;;17.90;65.20;;;;;;10438678;28;20025;-65
2023/01/11 17:00:38;;;;;;;13.35;4.45;;;18.20;64.30;;;;;;10442694;28;21247;-65
2023/01/11 17:05:39;;;;;;;12.73;4.13;;;18.30;65.10;;;;;;10437103;28;20021;-63
2023/01/11 17:10:39;;;;;;;10.68;3.45;;;18.30;66.60;;;;;;10428671;28;20569;-62
2023/01/11 17:15:57;;;;;;;16.48;4.32;;;18.20;66.50;;;;;;10415294;28;20381;-71
2023/01/11 17:20:57;;;;;;;8.13;2.90;;;18.20;66.80;;;;;;10400364;28;20465;-68
2023/01/11 17:25:59;;;;;;;11.23;3.72;;;18.20;65.90;;;;;;10403404;28;20032;-66
2023/01/11 17:31:01;;;;;;;10.35;2.78;;;18.20;65.00;;;;;;10399560;28;20014;-66
2023/01/11 17:36:02;;;;;;;15.90;4.43;;;18.30;65.10;;;;;;10405279;28;20101;-69
2023/01/11 17:45:11;;;;;;;14.65;3.40;;;18.30;65.60;;;;;;10407143;28;20484;-70
2023/01/11 17:46:26;;;;;;;10.27;2.60;;;18.40;65.60;;;;;;10430007;28;20574;-70
2023/01/11 17:51:30;;;;;;;14.00;3.00;;;18.50;65.30;;;;;;10414575;28;20017;-72
2023/01/11 17:56:44;;;;;;;10.57;2.67;;;18.50;65.10;;;;;;10415210;28;20031;-69
2023/01/11 18:01:52;;;;;;;5.32;1.70;;;18.30;65.40;;;;;;10417610;28;20017;-63
2023/01/11 18:07:06;;;;;;;11.20;2.17;;;18.20;65.70;;;;;;10430414;28;20060;-63
2023/01/11 18:12:26;;;;;;;11.27;2.47;;;18.20;65.60;;;;;;10442657;28;20020;-64
2023/01/11 18:17:35;;;;;;;6.53;2.08;;;18.00;65.90;;;;;;10439878;28;20029;-65
2023/01/11 18:23:12;;;;;;;9.98;2.58;;;17.90;66.00;;;;;;10458442;28;20476;-64
2023/01/11 18:28:25;;;;;;;11.25;3.13;;;17.90;66.50;;;;;;10461019;28;20029;-63
2023/01/11 18:33:30;;;;;;;8.32;2.08;;;17.70;67.30;;;;;;10435561;28;20055;-62
2023/01/11 18:38:35;;;;;;;8.43;2.60;;;17.50;67.90;;;;;;10445804;28;20120;-65
2023/01/11 18:43:36;;;;;;;13.45;3.75;;;17.40;68.40;;;;;;10445174;28;20427;-63
2023/01/11 18:48:36;;;;;;;4.95;2.15;;;17.20;68.80;;;;;;10439890;28;20043;-65
2023/01/11 18:53:37;;;;;;;6.05;2.45;;;17.20;69.10;;;;;;10443731;28;20458;-66
2023/01/11 18:58:38;;;;;;;6.22;2.13;;;17.10;69.40;;;;;;10439150;28;20112;-65
2023/01/11 19:03:38;;;;;;;5.85;2.10;;;17.00;69.50;;;;;;10439800;28;20124;-68
2023/01/11 19:08:39;;;;;;;5.65;2.33;;;17.00;69.60;;;;;;10410190;28;20037;-65
2023/01/11 19:13:40;;;;;;;4.38;1.58;;;17.10;74.30;;;;;;10426027;28;20371;-65
2023/01/11 19:18:40;;;;;;;6.13;2.33;;;17.40;73.60;;;;;;10426056;28;20121;-66
2023/01/11 19:23:41;;;;;;;11.70;2.67;;;17.50;73.00;;;;;;10420623;28;20145;-64
2023/01/11 19:28:42;;;;;;;12.80;2.88;;;17.40;72.90;;;;;;10425609;28;20021;-63
2023/01/11 19:33:43;;;;;;;7.43;2.42;;;17.30;71.90;;;;;;10388889;28;20441;-71
2023/01/11 19:38:43;;;;;;;6.45;2.05;;;17.30;72.20;;;;;;10387833;28;20037;-68
2023/01/11 19:43:44;;;;;;;7.32;1.95;;;17.20;72.20;;;;;;10428122;28;20124;-68
2023/01/11 19:48:45;;;;;;;6.30;2.40;;;17.10;72.50;;;;;;10426024;28;20178;-73
2023/01/11 19:53:46;;;;;;;5.85;2.35;;;17.10;72.60;;;;;;10414773;28;20029;-74
2023/01/11 19:58:46;;;;;;;7.55;1.80;;;17.00;72.30;;;;;;10421356;28;20101;-70
2023/01/11 20:03:47;;;;;;;4.68;1.83;;;17.00;72.20;;;;;;10414799;28;20108;-68
2023/01/11 20:08:49;;;;;;;8.48;2.13;;;17.00;72.20;;;;;;10420512;28;20116;-70
2023/01/11 20:13:50;;;;;;;5.43;1.73;;;16.90;72.10;;;;;;10429322;28;20012;-71
2023/01/11 20:18:56;;;;;;;6.22;1.88;;;16.90;72.20;;;;;;10442196;28;20109;-71
2023/01/11 20:23:57;;;;;;;5.00;2.60;;;16.80;72.00;;;;;;10414565;28;20095;-72
2023/01/11 20:28:58;;;;;;;4.88;1.58;;;16.80;70.90;;;;;;10427217;28;20071;-67
2023/01/11 20:34:09;;;;;;;6.88;2.17;;;16.70;71.10;;;;;;10426362;28;20095;-66
2023/01/11 20:39:11;;;;;;;4.68;1.65;;;16.60;71.20;;;;;;10429073;28;20119;-70
2023/01/11 20:44:31;;;;;;;6.68;2.38;;;16.60;71.20;;;;;;10407468;28;20042;-68
2023/01/11 20:49:31;;;;;;;4.63;1.80;;;16.50;71.20;;;;;;10417966;28;20017;-69
2023/01/11 20:54:32;;;;;;;6.47;2.75;;;16.50;71.20;;;;;;10420331;28;20033;-68
2023/01/11 20:59:33;;;;;;;6.03;1.75;;;16.50;71.20;;;;;;10408574;28;20175;-70
2023/01/11 21:04:34;;;;;;;7.20;2.20;;;16.40;71.10;;;;;;10415778;28;20495;-68
2023/01/11 21:09:35;;;;;;;4.38;2.33;;;16.40;71.10;;;;;;10425653;28;20160;-68
2023/01/11 21:14:36;;;;;;;4.85;1.50;;;16.40;71.00;;;;;;10449094;28;20123;-69
2023/01/11 21:19:36;;;;;;;5.35;2.17;;;16.40;71.00;;;;;;10437506;28;20102;-69
2023/01/11 21:24:39;;;;;;;7.30;2.00;;;16.30;70.90;;;;;;10410907;28;20100;-71
2023/01/11 21:29:40;;;;;;;6.32;2.13;;;16.30;70.90;;;;;;10438917;28;20108;-68
2023/01/11 21:34:41;;;;;;;5.22;1.75;;;16.30;70.90;;;;;;10432876;28;20035;-72
2023/01/11 21:39:41;;;;;;;7.82;2.05;;;16.30;70.90;;;;;;10423964;28;20113;-70
2023/01/11 21:44:42;;;;;;;7.22;1.83;;;16.30;70.90;;;;;;10424321;28;20153;-68
2023/01/11 21:49:43;;;;;;;7.45;1.95;;;16.20;70.80;;;;;;10390375;28;20119;-66
2023/01/11 21:54:44;;;;;;;7.90;1.80;;;16.20;70.90;;;;;;10423471;28;20725;-69
2023/01/11 21:59:44;;;;;;;4.38;2.00;;;16.20;70.90;;;;;;10448750;28;20027;-70
2023/01/11 22:04:45;;;;;;;3.60;1.70;;;16.20;70.90;;;;;;10448589;28;20492;-70
2023/01/11 22:09:46;;;;;;;5.18;1.77;;;16.20;70.90;;;;;;10430848;28;20558;-67
2023/01/11 22:14:46;;;;;;;4.43;2.25;;;16.20;70.90;;;;;;10407555;28;20062;-69
2023/01/11 22:19:47;;;;;;;8.88;2.38;;;16.20;70.90;;;;;;10404135;28;20104;-69
2023/01/11 22:24:48;;;;;;;5.78;1.65;;;16.10;70.80;;;;;;10410380;28;20035;-68
2023/01/11 22:29:50;;;;;;;4.63;1.70;;;16.10;70.80;;;;;;10421470;28;20018;-70
2023/01/11 22:34:51;;;;;;;4.80;1.58;;;16.10;70.90;;;;;;10426196;28;20028;-70
2023/01/11 22:39:52;;;;;;;4.10;1.58;;;16.10;70.80;;;;;;10444774;28;20524;-67
2023/01/11 22:44:54;;;;;;;4.85;2.25;;;16.10;70.80;;;;;;10408644;28;20128;-70
2023/01/11 22:49:55;;;;;;;7.88;3.95;;;16.00;70.80;;;;;;10429882;28;20024;-69
2023/01/11 22:54:56;;;;;;;3.90;1.45;;;16.00;70.70;;;;;;10434525;28;20108;-71
2023/01/11 22:59:57;;;;;;;6.05;1.40;;;16.00;70.70;;;;;;10448549;28;20376;-71
2023/01/11 23:04:57;;;;;;;4.45;1.52;;;16.00;70.60;;;;;;10448499;28;20039;-70
2023/01/11 23:09:58;;;;;;;18.90;2.45;;;16.00;70.70;;;;;;10418170;28;20100;-70
2023/01/11 23:14:58;;;;;;;4.40;1.27;;;16.00;70.70;;;;;;10422421;28;20567;-69
2023/01/11 23:19:59;;;;;;;3.80;2.10;;;16.00;70.60;;;;;;10446545;28;20048;-68
2023/01/11 23:25:00;;;;;;;3.63;1.90;;;16.00;70.70;;;;;;10410857;28;20136;-69
2023/01/11 23:30:00;;;;;;;4.43;1.27;;;16.00;70.70;;;;;;10435554;28;20020;-70
2023/01/11 23:35:01;;;;;;;3.08;1.20;;;16.00;70.70;;;;;;10429126;28;20029;-71
2023/01/11 23:40:02;;;;;;;4.30;1.20;;;15.90;70.60;;;;;;10420174;28;20200;-67
2023/01/11 23:45:04;;;;;;;4.75;1.13;;;15.90;70.70;;;;;;10420414;28;20060;-68
2023/01/11 23:50:06;;;;;;;3.30;1.23;;;15.90;70.60;;;;;;10406010;28;20021;-68
2023/01/11 23:55:08;;;;;;;7.45;1.40;;;15.90;70.60;;;;;;10431530;28;20029;-66
